Time;durP1;ratioP1;P1;durP2;ratioP2;P2;SDS_P1;SDS_P2;PMS_P1;PMS_P2;Temp;Humidity;BMP_temperature;BMP_pressure;BME280_temperature;BME280_humidity;BME280_pressure;Samples;Min_cycle;Max_cycle;Signal;HPM_P1;HPM_P2
2022/10/18 00:02:42;;;;;;;9.82;8.73;;;;;;;;;;10536587;28;20118;-46
2022/10/18 00:07:42;;;;;;;9.67;7.67;;;;;;;;;;10536366;28;20024;-47
2022/10/18 00:12:42;;;;;;;13.50;8.40;;;;;;;;;;10536543;28;20048;-47
2022/10/18 00:17:43;;;;;;;10.68;7.90;;;;;;;;;;10536611;28;20028;-47
2022/10/18 00:22:43;;;;;;;10.10;7.50;;;;;;;;;;10536243;28;20032;-47
2022/10/18 00:27:43;;;;;;;10.50;7.68;;;;;;;;;;10536059;28;20052;-54
2022/10/18 00:32:44;;;;;;;8.80;7.90;;;;;;;;;;10535618;28;20031;-54
2022/10/18 00:37:44;;;;;;;8.65;7.53;;;;;;;;;;10535694;28;20118;-58
2022/10/18 00:42:44;;;;;;;12.13;7.50;;;;;;;;;;10535180;28;20020;-61
2022/10/18 00:47:47;;;;;;;8.98;7.40;;;;;;;;;;10535325;28;20030;-51
2022/10/18 00:52:57;;;;;;;7.68;6.88;;;;;;;;;;10534963;28;20040;-53
2022/10/18 00:57:57;;;;;;;8.65;7.70;;;;;;;;;;10535532;28;20042;-51
2022/10/18 01:02:58;;;;;;;8.13;7.30;;;;;;;;;;10534482;28;20027;-55
2022/10/18 01:07:58;;;;;;;8.70;6.82;;;;;;;;;;10533145;28;20476;-56
2022/10/18 01:13:19;;;;;;;7.97;7.03;;;;;;;;;;10534575;28;20127;-54
2022/10/18 01:18:34;;;;;;;7.90;7.10;;;;;;;;;;10533698;28;20028;-54
2022/10/18 01:23:37;;;;;;;9.55;7.05;;;;;;;;;;10533849;28;20028;-59
2022/10/18 01:28:46;;;;;;;9.70;7.50;;;;;;;;;;10533485;28;20020;-59
2022/10/18 01:33:50;;;;;;;9.93;7.38;;;;;;;;;;10533131;28;20032;-62
2022/10/18 01:38:52;;;;;;;10.02;7.95;;;;;;;;;;10533867;28;20073;-62
2022/10/18 01:43:54;;;;;;;8.85;7.15;;;;;;;;;;10532950;28;20031;-64
2022/10/18 01:48:55;;;;;;;8.43;6.82;;;;;;;;;;10533244;28;20050;-63
2022/10/18 01:53:56;;;;;;;7.88;6.68;;;;;;;;;;10532400;28;20020;-63
2022/10/18 01:58:56;;;;;;;7.80;7.00;;;;;;;;;;10533460;28;20071;-63
2022/10/18 02:04:00;;;;;;;8.40;6.75;;;;;;;;;;10533113;28;20102;-61
2022/10/18 02:09:08;;;;;;;8.63;6.85;;;;;;;;;;10532833;28;20104;-65
2022/10/18 02:14:11;;;;;;;8.40;6.95;;;;;;;;;;10532525;28;20067;-61
2022/10/18 02:19:23;;;;;;;7.90;6.57;;;;;;;;;;10532971;28;20036;-62
2022/10/18 02:24:26;;;;;;;10.15;7.10;;;;;;;;;;10532516;28;20028;-61
2022/10/18 02:29:27;;;;;;;8.57;6.82;;;;;;;;;;10538466;28;20032;-64
2022/10/18 02:34:38;;;;;;;7.90;6.75;;;;;;;;;;10541098;28;20610;-60
2022/10/18 02:39:42;;;;;;;9.02;7.35;;;;;;;;;;10540446;28;20105;-64
2022/10/18 02:44:42;;;;;;;7.25;6.38;;;;;;;;;;10540119;28;20616;-64
2022/10/18 02:49:42;;;;;;;7.30;6.28;;;;;;;;;;10539961;28;20107;-63
2022/10/18 02:54:43;;;;;;;9.88;6.07;;;;;;;;;;10539167;28;20372;-61
2022/10/18 02:59:43;;;;;;;7.47;6.55;;;;;;;;;;10540369;28;20032;-62
2022/10/18 03:04:43;;;;;;;7.03;6.05;;;;;;;;;;10538560;28;20080;-58
2022/10/18 03:09:43;;;;;;;8.68;6.70;;;;;;;;;;10539317;28;20024;-54
2022/10/18 03:14:44;;;;;;;7.38;6.68;;;;;;;;;;10538676;28;20500;-56
2022/10/18 03:19:44;;;;;;;7.25;6.38;;;;;;;;;;10538794;28;20503;-60
2022/10/18 03:24:44;;;;;;;7.78;6.13;;;;;;;;;;10539040;28;20426;-56
2022/10/18 03:29:45;;;;;;;7.18;6.30;;;;;;;;;;10538411;28;20024;-56
2022/10/18 03:34:45;;;;;;;7.07;6.37;;;;;;;;;;10537983;28;20357;-63
2022/10/18 03:39:45;;;;;;;6.47;5.88;;;;;;;;;;10537325;28;20032;-64
2022/10/18 03:44:45;;;;;;;6.40;5.80;;;;;;;;;;10538062;28;20428;-63
2022/10/18 03:49:46;;;;;;;7.45;5.80;;;;;;;;;;10537533;28;20379;-63
2022/10/18 03:54:46;;;;;;;8.15;6.57;;;;;;;;;;10537336;28;20028;-62
2022/10/18 03:59:47;;;;;;;7.13;6.38;;;;;;;;;;10537248;28;20028;-60
2022/10/18 04:04:48;;;;;;;6.85;6.25;;;;;;;;;;10536764;28;20036;-53
2022/10/18 04:09:48;;;;;;;7.03;6.32;;;;;;;;;;10537649;28;20031;-53
2022/10/18 04:14:48;;;;;;;7.93;6.20;;;;;;;;;;10536493;28;20454;-60
2022/10/18 04:19:49;;;;;;;6.20;5.55;;;;;;;;;;10536258;28;20527;-47
2022/10/18 04:24:49;;;;;;;9.57;6.00;;;;;;;;;;10536153;28;20378;-47
2022/10/18 04:29:49;;;;;;;5.90;5.40;;;;;;;;;;10536088;28;20031;-62
2022/10/18 04:34:49;;;;;;;7.25;5.90;;;;;;;;;;10535731;28;20024;-63
2022/10/18 04:39:50;;;;;;;6.80;6.00;;;;;;;;;;10535422;28;20387;-63
2022/10/18 04:44:50;;;;;;;6.50;5.57;;;;;;;;;;10535451;28;20509;-54
2022/10/18 04:49:50;;;;;;;6.18;5.57;;;;;;;;;;10534975;28;20054;-49
2022/10/18 04:54:50;;;;;;;7.00;6.03;;;;;;;;;;10534953;28;20467;-47
2022/10/18 04:59:51;;;;;;;7.20;5.93;;;;;;;;;;10535290;28;20102;-47
2022/10/18 05:04:51;;;;;;;6.10;5.47;;;;;;;;;;10534025;28;20383;-51
2022/10/18 05:09:51;;;;;;;6.78;6.07;;;;;;;;;;10534015;28;20060;-47
2022/10/18 05:14:55;;;;;;;5.75;5.20;;;;;;;;;;10533752;28;20048;-54
2022/10/18 05:19:55;;;;;;;6.28;5.65;;;;;;;;;;10534531;28;20035;-51
2022/10/18 05:24:55;;;;;;;8.57;6.03;;;;;;;;;;10533743;28;20031;-50
2022/10/18 05:29:55;;;;;;;8.95;7.43;;;;;;;;;;10532862;28;20031;-49
2022/10/18 05:34:56;;;;;;;23.60;11.38;;;;;;;;;;10532937;28;20058;-51
2022/10/18 05:39:56;;;;;;;18.10;10.90;;;;;;;;;;10533519;28;20467;-48
2022/10/18 05:44:56;;;;;;;18.08;13.43;;;;;;;;;;10533329;28;20494;-46
2022/10/18 05:49:56;;;;;;;26.55;14.35;;;;;;;;;;10532481;28;20047;-47
2022/10/18 05:54:57;;;;;;;23.13;14.68;;;;;;;;;;10532888;28;20028;-47
2022/10/18 05:59:57;;;;;;;21.65;14.40;;;;;;;;;;10530295;28;20478;-53
2022/10/18 06:04:57;;;;;;;23.15;13.18;;;;;;;;;;10530933;28;20484;-51
2022/10/18 06:09:57;;;;;;;20.30;13.85;;;;;;;;;;10532732;28;20039;-60
2022/10/18 06:14:58;;;;;;;19.80;13.27;;;;;;;;;;10532160;28;20064;-59
2022/10/18 06:19:58;;;;;;;15.60;12.57;;;;;;;;;;10531726;28;20071;-64
2022/10/18 06:24:58;;;;;;;18.58;12.40;;;;;;;;;;10533418;28;20036;-59
2022/10/18 06:29:58;;;;;;;17.70;11.50;;;;;;;;;;10532446;28;20093;-52
2022/10/18 06:34:59;;;;;;;18.98;11.93;;;;;;;;;;10532076;28;20118;-58
2022/10/18 06:39:59;;;;;;;20.30;12.02;;;;;;;;;;10531696;28;20024;-60
2022/10/18 06:44:59;;;;;;;13.57;10.67;;;;;;;;;;10532494;28;20055;-58
2022/10/18 06:50:00;;;;;;;16.58;11.20;;;;;;;;;;10532152;28;20067;-51
2022/10/18 06:55:00;;;;;;;16.60;11.02;;;;;;;;;;10531952;28;20562;-57
2022/10/18 07:00:00;;;;;;;17.05;10.60;;;;;;;;;;10532191;28;20433;-53
2022/10/18 07:05:01;;;;;;;12.82;10.27;;;;;;;;;;10531523;28;20428;-58
2022/10/18 07:10:01;;;;;;;14.23;10.93;;;;;;;;;;10532759;28;20038;-55
2022/10/18 07:15:01;;;;;;;10.83;9.47;;;;;;;;;;10535093;28;20040;-52
2022/10/18 07:20:03;;;;;;;14.82;10.25;;;;;;;;;;10538265;28;20501;-58
2022/10/18 07:25:04;;;;;;;12.88;9.85;;;;;;;;;;10537876;28;20040;-58
2022/10/18 07:30:05;;;;;;;13.95;10.00;;;;;;;;;;10538587;28;20086;-49
2022/10/18 07:35:06;;;;;;;13.25;9.73;;;;;;;;;;10537944;28;20028;-59
2022/10/18 07:40:06;;;;;;;10.82;8.75;;;;;;;;;;10538435;28;20375;-48
2022/10/18 07:45:07;;;;;;;12.40;9.77;;;;;;;;;;10537801;28;20368;-48
2022/10/18 07:50:07;;;;;;;14.15;9.48;;;;;;;;;;10537280;28;20032;-50
2022/10/18 07:55:08;;;;;;;14.57;9.77;;;;;;;;;;10536728;28;20054;-60
2022/10/18 08:00:08;;;;;;;13.75;9.25;;;;;;;;;;10536772;28;20035;-59
2022/10/18 08:05:08;;;;;;;16.83;10.02;;;;;;;;;;10537261;28;20027;-53
2022/10/18 08:10:09;;;;;;;12.45;9.77;;;;;;;;;;10537244;28;20376;-62
2022/10/18 08:15:09;;;;;;;11.50;9.07;;;;;;;;;;10536580;28;20041;-46
2022/10/18 08:20:10;;;;;;;13.52;9.55;;;;;;;;;;10536389;28;20058;-51
2022/10/18 08:25:10;;;;;;;12.70;9.07;;;;;;;;;;10536172;28;20028;-62
2022/10/18 08:30:10;;;;;;;14.90;9.32;;;;;;;;;;10536501;28;20028;-49
2022/10/18 08:35:10;;;;;;;12.32;9.43;;;;;;;;;;10535816;28;20479;-52
2022/10/18 08:40:14;;;;;;;11.45;9.15;;;;;;;;;;10535343;28;20353;-55
2022/10/18 08:45:14;;;;;;;15.38;9.25;;;;;;;;;;10535607;28;20031;-53
2022/10/18 08:50:23;;;;;;;13.65;9.93;;;;;;;;;;10535270;28;20035;-58
2022/10/18 08:55:26;;;;;;;12.20;9.32;;;;;;;;;;10534850;28;20144;-57
2022/10/18 09:00:29;;;;;;;14.80;9.65;;;;;;;;;;10533716;28;20048;-50
2022/10/18 09:05:43;;;;;;;14.02;9.35;;;;;;;;;;10534744;28;20060;-60
2022/10/18 09:11:00;;;;;;;13.18;10.07;;;;;;;;;;10534546;28;20055;-56
2022/10/18 09:16:01;;;;;;;13.50;9.63;;;;;;;;;;10534277;28;20048;-58
2022/10/18 09:21:22;;;;;;;14.43;9.55;;;;;;;;;;10534628;28;20096;-54
2022/10/18 09:26:36;;;;;;;13.50;9.95;;;;;;;;;;10534197;28;20024;-56
2022/10/18 09:31:41;;;;;;;13.93;9.43;;;;;;;;;;10533990;28;20024;-53
2022/10/18 09:36:42;;;;;;;12.57;9.35;;;;;;;;;;10532797;28;20035;-51
2022/10/18 09:41:52;;;;;;;13.90;10.07;;;;;;;;;;10533605;28;20107;-48
2022/10/18 09:46:55;;;;;;;13.93;10.25;;;;;;;;;;10534230;28;20039;-49
2022/10/18 09:51:55;;;;;;;13.80;9.30;;;;;;;;;;10533289;28;20031;-48
2022/10/18 09:57:07;;;;;;;13.35;10.25;;;;;;;;;;10533190;28;20024;-47
2022/10/18 10:02:21;;;;;;;15.65;11.07;;;;;;;;;;10533166;28;20479;-49
2022/10/18 10:07:25;;;;;;;13.82;10.45;;;;;;;;;;10533571;28;20025;-47
2022/10/18 10:12:30;;;;;;;18.42;11.82;;;;;;;;;;10532492;28;20050;-54
2022/10/18 10:17:32;;;;;;;18.83;10.50;;;;;;;;;;10532574;28;20047;-50
2022/10/18 10:22:37;;;;;;;13.88;10.98;;;;;;;;;;10532840;28;20035;-64
2022/10/18 10:27:42;;;;;;;15.38;10.60;;;;;;;;;;10532668;28;20349;-63
2022/10/18 10:32:44;;;;;;;14.27;10.65;;;;;;;;;;10532470;28;20463;-63
2022/10/18 10:37:49;;;;;;;14.95;10.10;;;;;;;;;;10532449;28;20035;-63
2022/10/18 10:42:54;;;;;;;15.98;10.77;;;;;;;;;;10532723;28;20213;-63
2022/10/18 10:48:01;;;;;;;15.23;10.15;;;;;;;;;;10533083;28;20108;-63
2022/10/18 10:53:01;;;;;;;14.40;9.95;;;;;;;;;;10540240;28;20274;-63
2022/10/18 10:58:02;;;;;;;12.40;9.97;;;;;;;;;;10540329;28;20329;-63
2022/10/18 11:03:11;;;;;;;12.57;9.83;;;;;;;;;;10539775;28;20518;-57
2022/10/18 11:08:13;;;;;;;16.42;10.82;;;;;;;;;;10540033;28;20058;-48
2022/10/18 11:13:15;;;;;;;14.48;9.35;;;;;;;;;;10539362;28;20039;-48
2022/10/18 11:18:18;;;;;;;13.73;9.55;;;;;;;;;;10539610;28;20077;-47
2022/10/18 11:23:18;;;;;;;15.88;9.75;;;;;;;;;;10538863;28;20055;-48
2022/10/18 11:28:37;;;;;;;17.17;9.40;;;;;;;;;;10538665;28;20040;-50
2022/10/18 11:33:37;;;;;;;;;;;;;;;;;;10539480;28;20024;-61
2022/10/18 11:38:56;;;;;;;16.25;9.27;;;;;;;;;;10538286;28;20290;-61
2022/10/18 11:44:00;;;;;;;13.05;9.70;;;;;;;;;;10537689;28;20031;-61
2022/10/18 11:49:19;;;;;;;15.98;9.20;;;;;;;;;;10538264;28;20020;-63
2022/10/18 11:54:22;;;;;;;17.20;10.25;;;;;;;;;;10537083;28;20032;-64
2022/10/18 11:59:37;;;;;;;16.73;10.02;;;;;;;;;;10536576;28;20040;-55
2022/10/18 12:04:42;;;;;;;13.80;10.10;;;;;;;;;;10537179;28;20032;-62
2022/10/18 12:09:44;;;;;;;14.82;10.18;;;;;;;;;;10536752;28;20026;-58
2022/10/18 12:14:44;;;;;;;12.75;9.57;;;;;;;;;;10536564;28;20044;-61
2022/10/18 12:19:46;;;;;;;12.32;9.13;;;;;;;;;;10536564;28;20118;-61
2022/10/18 12:24:46;;;;;;;15.48;9.48;;;;;;;;;;10536052;28;20494;-60
2022/10/18 12:29:52;;;;;;;15.98;9.57;;;;;;;;;;10536203;28;20024;-62
2022/10/18 12:35:05;;;;;;;13.63;9.63;;;;;;;;;;10536305;28;20035;-63
2022/10/18 12:40:24;;;;;;;14.63;9.55;;;;;;;;;;10535499;28;20032;-54
2022/10/18 12:45:26;;;;;;;13.35;9.25;;;;;;;;;;10535391;28;20040;-63
2022/10/18 12:50:33;;;;;;;15.07;9.48;;;;;;;;;;10535268;28;20402;-63
2022/10/18 12:55:37;;;;;;;17.95;9.80;;;;;;;;;;10535081;28;20039;-63
2022/10/18 13:00:37;;;;;;;14.23;8.93;;;;;;;;;;10535184;28;20042;-61
2022/10/18 13:05:49;;;;;;;17.70;9.07;;;;;;;;;;10534493;28;20422;-54
2022/10/18 13:11:10;;;;;;;15.65;9.07;;;;;;;;;;10534718;28;20028;-51
2022/10/18 13:16:20;;;;;;;13.75;8.93;;;;;;;;;;10533850;28;20275;-56
2022/10/18 13:21:26;;;;;;;12.65;8.48;;;;;;;;;;10534446;28;20036;-60
2022/10/18 13:26:27;;;;;;;14.65;9.05;;;;;;;;;;10533772;28;20054;-55
2022/10/18 13:31:27;;;;;;;12.35;9.07;;;;;;;;;;10534202;28;20035;-54
2022/10/18 13:36:31;;;;;;;16.35;9.35;;;;;;;;;;10533241;28;20036;-54
2022/10/18 13:41:40;;;;;;;11.82;8.48;;;;;;;;;;10533751;28;20028;-63
2022/10/18 13:46:41;;;;;;;15.43;8.85;;;;;;;;;;10533294;28;20111;-60
2022/10/18 13:51:50;;;;;;;13.45;8.50;;;;;;;;;;10533642;28;20111;-63
2022/10/18 13:57:06;;;;;;;14.93;8.60;;;;;;;;;;10532987;28;20523;-62
2022/10/18 14:02:18;;;;;;;11.18;8.80;;;;;;;;;;10533157;28;20028;-61
2022/10/18 14:07:19;;;;;;;15.13;10.38;;;;;;;;;;10533431;28;20031;-62
2022/10/18 14:12:38;;;;;;;15.70;9.60;;;;;;;;;;10576751;22;20057;-54
2022/10/18 14:17:43;;;;;;;16.77;10.75;;;;;;;;;;10490571;28;20108;-57
2022/10/18 14:22:46;;;;;;;16.85;10.60;;;;;;;;;;10492213;28;20138;-63
2022/10/18 14:27:46;;;;;;;14.95;10.93;;;;;;;;;;10499342;28;20499;-63
2022/10/18 14:32:48;;;;;;;16.02;10.45;;;;;;;;;;10499243;28;20032;-53
2022/10/18 14:37:49;;;;;;;15.43;11.25;;;;;;;;;;10499016;28;20060;-51
2022/10/18 14:42:50;;;;;;;16.88;10.90;;;;;;;;;;10498585;28;20403;-56
2022/10/18 14:47:50;;;;;;;17.07;11.50;;;;;;;;;;10498382;28;20078;-47
2022/10/18 14:52:50;;;;;;;15.77;11.18;;;;;;;;;;10497273;28;20029;-56
2022/10/18 14:57:50;;;;;;;15.83;10.97;;;;;;;;;;10497362;28;20175;-60
2022/10/18 15:02:51;;;;;;;13.98;10.57;;;;;;;;;;10497100;28;20025;-55
2022/10/18 15:07:52;;;;;;;15.63;10.90;;;;;;;;;;10497602;28;20028;-54
2022/10/18 15:12:52;;;;;;;16.33;10.65;;;;;;;;;;10496953;28;20691;-58
2022/10/18 15:17:53;;;;;;;13.52;10.60;;;;;;;;;;10496852;28;20024;-56
2022/10/18 15:23:13;;;;;;;12.82;9.25;;;;;;;;;;10496988;28;20032;-55
2022/10/18 15:28:26;;;;;;;13.27;9.88;;;;;;;;;;10496571;28;20028;-58
2022/10/18 15:33:32;;;;;;;12.70;9.23;;;;;;;;;;10496751;28;20384;-55
2022/10/18 15:38:35;;;;;;;11.82;10.02;;;;;;;;;;10496056;28;20052;-56
2022/10/18 15:43:35;;;;;;;12.50;9.23;;;;;;;;;;10495948;28;20408;-53
2022/10/18 15:48:37;;;;;;;13.40;9.23;;;;;;;;;;10495954;28;20024;-63
2022/10/18 15:53:42;;;;;;;12.57;9.55;;;;;;;;;;10495617;28;20464;-54
2022/10/18 15:58:43;;;;;;;11.18;9.32;;;;;;;;;;10496065;28;20160;-63
2022/10/18 16:03:45;;;;;;;13.68;9.80;;;;;;;;;;10495173;28;20033;-62
2022/10/18 16:08:46;;;;;;;11.73;8.60;;;;;;;;;;10495436;28;20024;-63
2022/10/18 16:13:47;;;;;;;11.93;9.23;;;;;;;;;;10494593;28;20605;-61
2022/10/18 16:18:47;;;;;;;10.07;8.13;;;;;;;;;;10494874;28;20108;-60
2022/10/18 16:23:48;;;;;;;11.82;9.45;;;;;;;;;;10493643;28;20056;-55
2022/10/18 16:28:48;;;;;;;11.20;8.23;;;;;;;;;;10494277;28;20029;-65
2022/10/18 16:39:33;;;;;;;8.75;7.72;;;;;;;;;;10490896;28;20121;-48
2022/10/18 16:44:33;;;;;;;10.23;8.73;;;;;;;;;;10491632;28;20024;-66
2022/10/18 16:49:34;;;;;;;11.70;8.35;;;;;;;;;;10491460;28;20043;-51
2022/10/18 16:54:34;;;;;;;11.25;8.43;;;;;;;;;;10491411;28;20051;-55
2022/10/18 16:59:34;;;;;;;10.68;8.20;;;;;;;;;;10492327;28;20032;-61
2022/10/18 17:04:35;;;;;;;10.60;8.13;;;;;;;;;;10491239;28;20341;-51
2022/10/18 17:09:35;;;;;;;12.40;8.68;;;;;;;;;;10492520;28;20533;-54
2022/10/18 17:14:36;;;;;;;14.85;8.32;;;;;;;;;;10492687;28;20037;-56
2022/10/18 17:19:36;;;;;;;13.27;8.55;;;;;;;;;;10492142;28;20033;-64
2022/10/18 17:24:36;;;;;;;10.85;8.65;;;;;;;;;;10491377;28;20424;-64
2022/10/18 17:29:36;;;;;;;14.07;8.65;;;;;;;;;;10491781;28;20030;-59
2022/10/18 17:34:37;;;;;;;13.00;8.27;;;;;;;;;;10492559;28;20025;-63
2022/10/18 17:39:37;;;;;;;22.27;12.43;;;;;;;;;;10492404;28;20052;-58
2022/10/18 17:44:37;;;;;;;25.25;11.90;;;;;;;;;;10490808;28;20028;-60
2022/10/18 17:49:43;;;;;;;29.70;11.00;;;;;;;;;;10489396;28;20107;-69
2022/10/18 17:54:46;;;;;;;23.17;10.63;;;;;;;;;;10490138;28;20384;-65
2022/10/18 17:59:47;;;;;;;23.58;11.23;;;;;;;;;;10489091;28;20057;-65
2022/10/18 18:04:47;;;;;;;15.30;9.77;;;;;;;;;;10491113;28;20065;-64
2022/10/18 18:09:48;;;;;;;19.70;12.90;;;;;;;;;;10490986;28;20376;-65
2022/10/18 18:14:48;;;;;;;130.23;65.95;;;;;;;;;;10490828;28;20127;-64
2022/10/18 18:19:48;;;;;;;187.93;94.53;;;;;;;;;;10490914;28;20036;-50
2022/10/18 18:24:48;;;;;;;201.82;102.70;;;;;;;;;;10490928;28;20069;-56
2022/10/18 18:29:49;;;;;;;201.20;100.95;;;;;;;;;;10491018;28;20025;-47
2022/10/18 18:34:49;;;;;;;202.40;100.65;;;;;;;;;;10490746;28;20061;-46
2022/10/18 18:39:49;;;;;;;194.82;97.82;;;;;;;;;;10489569;28;20036;-45
2022/10/18 18:44:49;;;;;;;177.07;93.30;;;;;;;;;;10489901;28;20096;-50
2022/10/18 18:49:50;;;;;;;182.45;92.38;;;;;;;;;;10489257;28;20374;-62
2022/10/18 18:54:50;;;;;;;170.20;86.72;;;;;;;;;;10489764;28;20584;-63
2022/10/18 18:59:51;;;;;;;159.18;83.85;;;;;;;;;;10490058;28;20145;-62
2022/10/18 19:04:51;;;;;;;151.70;79.22;;;;;;;;;;10489926;28;20032;-62
2022/10/18 19:09:51;;;;;;;153.18;77.30;;;;;;;;;;10492556;28;20039;-60
2022/10/18 19:14:51;;;;;;;154.02;76.45;;;;;;;;;;10497351;28;20518;-61
2022/10/18 19:19:52;;;;;;;145.25;75.80;;;;;;;;;;10497752;28;20060;-58
2022/10/18 19:24:53;;;;;;;145.85;74.97;;;;;;;;;;10497641;28;20028;-57
2022/10/18 19:29:53;;;;;;;139.93;73.38;;;;;;;;;;10497431;28;20070;-47
2022/10/18 19:34:53;;;;;;;140.60;71.68;;;;;;;;;;10496744;28;20028;-61
2022/10/18 19:39:53;;;;;;;135.55;70.40;;;;;;;;;;10496320;28;20039;-49
2022/10/18 19:44:54;;;;;;;142.55;69.57;;;;;;;;;;10496387;28;20460;-52
2022/10/18 19:49:54;;;;;;;131.63;69.72;;;;;;;;;;10496262;28;20555;-49
2022/10/18 19:54:54;;;;;;;130.57;68.53;;;;;;;;;;10495912;28;20027;-50
2022/10/18 19:59:55;;;;;;;138.95;68.25;;;;;;;;;;10495575;28;20028;-57
2022/10/18 20:04:55;;;;;;;133.90;67.93;;;;;;;;;;10495999;28;20060;-58
2022/10/18 20:09:55;;;;;;;133.63;65.57;;;;;;;;;;10495498;28;20024;-46
2022/10/18 20:14:55;;;;;;;126.80;65.00;;;;;;;;;;10495162;28;20041;-46
2022/10/18 20:19:56;;;;;;;129.82;64.95;;;;;;;;;;10494805;28;20100;-46
2022/10/18 20:24:56;;;;;;;121.10;63.63;;;;;;;;;;10494587;28;20024;-49
2022/10/18 20:29:57;;;;;;;117.05;60.63;;;;;;;;;;10494533;28;20090;-48
2022/10/18 20:34:57;;;;;;;119.83;61.77;;;;;;;;;;10494696;28;20028;-46
2022/10/18 20:39:58;;;;;;;111.50;61.35;;;;;;;;;;10494674;28;20036;-45
2022/10/18 20:44:59;;;;;;;121.88;61.13;;;;;;;;;;10494407;28;20025;-45
2022/10/18 20:49:59;;;;;;;114.28;60.22;;;;;;;;;;10493772;28;20614;-45
2022/10/18 20:54:59;;;;;;;112.90;57.28;;;;;;;;;;10493978;28;20180;-45
2022/10/18 21:00:00;;;;;;;118.30;60.35;;;;;;;;;;10492104;28;20034;-50
2022/10/18 21:05:00;;;;;;;107.65;56.03;;;;;;;;;;10490448;28;20032;-49
2022/10/18 21:10:00;;;;;;;109.38;58.38;;;;;;;;;;10491882;28;20026;-46
2022/10/18 21:15:00;;;;;;;106.38;56.28;;;;;;;;;;10491524;28;20048;-46
2022/10/18 21:20:01;;;;;;;110.22;56.88;;;;;;;;;;10492145;28;20029;-47
2022/10/18 21:25:01;;;;;;;108.90;54.47;;;;;;;;;;10492492;28;20495;-46
2022/10/18 21:30:02;;;;;;;102.47;51.13;;;;;;;;;;10491899;28;20369;-46
2022/10/18 21:35:02;;;;;;;98.28;50.58;;;;;;;;;;10491403;28;20025;-46
2022/10/18 21:40:03;;;;;;;102.65;51.53;;;;;;;;;;10490300;28;20028;-46
2022/10/18 21:45:04;;;;;;;99.82;51.55;;;;;;;;;;10488789;28;20491;-46
2022/10/18 21:50:04;;;;;;;97.35;47.25;;;;;;;;;;10488022;28;20074;-45
2022/10/18 21:55:06;;;;;;;98.68;50.55;;;;;;;;;;10490315;28;20117;-58
2022/10/18 22:00:06;;;;;;;94.18;47.67;;;;;;;;;;10492005;28;20028;-49
2022/10/18 22:05:06;;;;;;;96.53;47.95;;;;;;;;;;10491748;28;20032;-50
2022/10/18 22:10:07;;;;;;;100.05;48.05;;;;;;;;;;10491442;28;20029;-49
2022/10/18 22:15:07;;;;;;;91.78;46.50;;;;;;;;;;10491852;28;20106;-46
2022/10/18 22:20:08;;;;;;;101.07;46.08;;;;;;;;;;10491026;28;20040;-48
2022/10/18 22:25:08;;;;;;;99.55;47.72;;;;;;;;;;10490850;28;20111;-46
2022/10/18 22:30:09;;;;;;;87.33;43.13;;;;;;;;;;10491110;28;20132;-48
2022/10/18 22:35:09;;;;;;;88.53;44.00;;;;;;;;;;10490882;28;20064;-49
2022/10/18 22:40:10;;;;;;;79.10;41.67;;;;;;;;;;10491320;28;20032;-51
2022/10/18 22:45:10;;;;;;;91.93;41.10;;;;;;;;;;10493982;28;20471;-47
2022/10/18 22:50:10;;;;;;;85.53;41.13;;;;;;;;;;10498685;28;20429;-54
2022/10/18 22:55:11;;;;;;;83.53;40.83;;;;;;;;;;10498767;28;20089;-53
2022/10/18 23:00:11;;;;;;;87.18;42.80;;;;;;;;;;10498182;28;20169;-50
2022/10/18 23:05:11;;;;;;;81.72;42.20;;;;;;;;;;10497999;28;20029;-47
2022/10/18 23:10:11;;;;;;;75.40;38.92;;;;;;;;;;10497906;28;20032;-54
2022/10/18 23:15:12;;;;;;;74.13;38.83;;;;;;;;;;10497232;28;20048;-52
2022/10/18 23:20:12;;;;;;;72.88;37.65;;;;;;;;;;10497460;28;20093;-50
2022/10/18 23:25:12;;;;;;;75.40;36.85;;;;;;;;;;10497044;28;20025;-54
2022/10/18 23:30:13;;;;;;;67.07;34.70;;;;;;;;;;10497248;28;20043;-52
2022/10/18 23:35:13;;;;;;;71.32;36.35;;;;;;;;;;10497288;28;20031;-53
2022/10/18 23:40:13;;;;;;;67.80;36.33;;;;;;;;;;10496685;28;20032;-57
2022/10/18 23:45:14;;;;;;;70.55;34.25;;;;;;;;;;10496869;28;20107;-53
2022/10/18 23:50:14;;;;;;;65.00;33.30;;;;;;;;;;10497524;28;20228;-60
2022/10/18 23:55:14;;;;;;;74.28;33.95;;;;;;;;;;10494707;28;20067;-51
